Αρχική σελίδα
METAR-TAF:

METAR-TAF

Αεροδρόμια :

Δαμασκός, Συρία

γεωγραφικό πλάτος: 33-25N, γεωγραφικό μήκος: 036-31E, υψόμετρο: 608 μ

Παρών καιρός

Η αναφορά έγινε 46 λεπτά πριν, στις 16:00 UTC
Άνεμος 20 kt από Δ/ΝΔ με ριπές μέχρι 30 kt
Θερμοκρασία 29°C
Υγρασία 23%
Πίεση 1010 hPa
Ορατότητα: 3000 μ
εκτεταμένη σκόνη,

METAR: OSDI 271600Z 24020G30KT 3000 DU 29/06 Q1010

Χρόνος: 19:46 (16:46 UTC)

Πρόγνωση Καιρού

Η πρόγνωση ισχύει από τις 27 στις 12 UTC έως τις 28 στις 18 UTC
Άνεμος 15 kt από ΝΔ
Ορατότητα: 7000 μ
Διάσπαρτα νέφη σε ύψος 3000 πόδια

TAF: OSDI 2712/2818 22015KT 7000 SCT030

Μετεωρολογικές αναφορές και προγνώσεις για περισσότερα από 4000 αεροδρόμια (δελτία METAR και TAF).

Οι διαθέσιμοι σταθμοί απεικονίζονται στο χάρτη με κίτρινες και κόκκινες κουκκίδες.

Μετακινήστε το ποντίκι πάνω από τις κουκκίδες για να δείτε το όνομα του σταθμού.

Στη συνέχεια, κάντε κλικ για να δείτε τις μετεωρολογικές αναφορές και τις προγνώσεις καιρού.

Για να αλλάξετε το χάρτη: κάντε κλικ στα πράσινα κουμπιά με τον μαύρο σταυρό για να ζουμάρετε, στο πράσινο κουμπί με την παύλα για να αφαιρέσετε το ζουμ ή στα πράσινα βέλη για να αντιπαραβάλλετε χάρτες.


METAR-TAF: